Evangelistas — CBEN — position and weather

sailwx.info

Track history (hours):
 
Tides and Currents Weather Stations Pressure Air Temp Water Temp Dewpoint Dewpoint Depression Visibility Wind Speed Wind Dir Waves Ship Positions

Evangelistas

Last reported at 2018-Feb-02 20:28 UTC. Time now 2018-Jul-22 14:31 UTC.
Position S 33°00' W 071°39'.
Warning: this ship's position is months out of date.

Length 123 m; draft 4.7 m.

MMSI: 725016600.

Date/timePositionNaut miles runAvg speedWind from/ knotsBaromVisibWave heightAir tempDewpointWater temp
2018-Feb-02 20:28S 33°00' W 071°39'3 5.2
2018-Feb-02 19:56S 33°01' W 071°36'0 0.4
2018-Feb-02 19:00S 33°01' W 071°36'0 0.9
2018-Feb-02 18:30S 33°00' W 071°36'3 5.2
2018-Feb-02 18:00S 32°58' W 071°35'1 2.5
2018-Feb-02 17:30S 32°57' W 071°36'510.1
2018-Feb-02 17:00S 33°02' W 071°37'  
2018-Jan-31 10:52S 33°02' W 071°37'0 0.0
2018-Jan-30 16:59S 33°02' W 071°37'0 1.0
2018-Jan-30 16:30S 33°02' W 071°37'1 2.3
2018-Jan-30 15:58S 33°01' W 071°36'0 0.2
2018-Jan-30 13:24S 33°01' W 071°35'1 2.8
2018-Jan-30 12:55S 33°00' W 071°37'7 9.6
2018-Jan-30 12:14S 33°00' W 071°45'  
Track history (hours):
 
Tides and Currents Weather Stations Pressure Air Temp Water Temp Dewpoint Dewpoint Depression Visibility Wind Speed Wind Dir Waves Ship Positions

Evangelistas

Last reported at 2018-Feb-02 20:28 UTC. Time now 2018-Jul-22 14:31 UTC.
Position S 33°00' W 071°39'.
Warning: this ship's position is months out of date.

Length 123 m; draft 4.7 m.

MMSI: 725016600.

Date/timePositionNaut miles runAvg speedWind from/ knotsBaromVisibWave heightAir tempDewpointWater temp
2018-Feb-02 20:28S 33°00' W 071°39'3 5.2
2018-Feb-02 19:56S 33°01' W 071°36'0 0.4
2018-Feb-02 19:00S 33°01' W 071°36'0 0.9
2018-Feb-02 18:30S 33°00' W 071°36'3 5.2
2018-Feb-02 18:00S 32°58' W 071°35'1 2.5
2018-Feb-02 17:30S 32°57' W 071°36'510.1
2018-Feb-02 17:00S 33°02' W 071°37'  
2018-Jan-31 10:52S 33°02' W 071°37'0 0.0
2018-Jan-30 16:59S 33°02' W 071°37'0 1.0
2018-Jan-30 16:30S 33°02' W 071°37'1 2.3
2018-Jan-30 15:58S 33°01' W 071°36'0 0.2
2018-Jan-30 13:24S 33°01' W 071°35'1 2.8
2018-Jan-30 12:55S 33°00' W 071°37'7 9.6
2018-Jan-30 12:14S 33°00' W 071°45'  

Dump ship's entire track history